Time;durP1;ratioP1;P1;durP2;ratioP2;P2;SDS_P1;SDS_P2;PMS_P1;PMS_P2;Temp;Humidity;BMP_temperature;BMP_pressure;BME280_temperature;BME280_humidity;BME280_pressure;Samples;Min_cycle;Max_cycle;Signal;HPM_P1;HPM_P2
2022/05/06 00:01:14;;;;;;;9.03;5.10;;;9.10;51.80;;;;;;5039009;28;20199;-57
2022/05/06 00:03:41;;;;;;;6.00;5.30;;;9.30;1.00;;;;;;5046567;28;20192;-57
2022/05/06 00:06:08;;;;;;;9.87;5.40;;;9.40;1.00;;;;;;5031871;28;20206;-58
2022/05/06 00:08:35;;;;;;;7.80;5.10;;;9.50;1.00;;;;;;5049657;28;20203;-59
2022/05/06 00:11:02;;;;;;;8.37;5.00;;;9.60;1.00;;;;;;5027430;28;20242;-57
2022/05/06 00:13:29;;;;;;;6.90;5.07;;;9.60;1.00;;;;;;5046435;28;20305;-57
2022/05/06 00:15:56;;;;;;;6.30;4.93;;;9.70;1.00;;;;;;5045923;28;20192;-57
2022/05/06 00:18:23;;;;;;;6.87;5.00;;;9.70;1.00;;;;;;5051050;28;20223;-58
2022/05/06 00:20:53;;;;;;;11.63;5.20;;;9.60;1.00;;;;;;5028579;28;20183;-57
2022/05/06 00:23:20;;;;;;;7.30;5.47;;;9.60;1.00;;;;;;5048544;28;20192;-57
2022/05/06 00:25:46;;;;;;;6.87;4.87;;;9.60;1.00;;;;;;5045270;28;20219;-56
2022/05/06 00:28:15;;;;;;;9.07;5.50;;;9.60;1.00;;;;;;5046458;28;21158;-57
2022/05/06 00:30:44;;;;;;;8.07;5.43;;;9.60;1.00;;;;;;5038927;28;20226;-57
2022/05/06 00:33:13;;;;;;;12.40;5.70;;;9.60;1.00;;;;;;5047050;28;20199;-56
2022/05/06 00:35:41;;;;;;;8.90;5.23;;;9.40;1.00;;;;;;5044042;28;20278;-57
2022/05/06 00:38:08;;;;;;;7.13;5.00;;;9.50;1.00;;;;;;5049530;28;20314;-57
2022/05/06 00:40:35;;;;;;;7.83;4.90;;;9.40;1.00;;;;;;5046713;28;20196;-57
2022/05/06 00:43:02;;;;;;;6.57;4.73;;;9.40;1.00;;;;;;5026686;28;20302;-57
2022/05/06 00:45:51;;;;;;;8.40;4.83;;;9.40;1.00;;;;;;5044246;28;20191;-57
2022/05/06 00:48:25;;;;;;;6.63;4.97;;;9.20;1.00;;;;;;5049124;28;22144;-57
2022/05/06 00:50:53;;;;;;;7.67;5.53;;;9.30;1.00;;;;;;5045848;28;20971;-56
2022/05/06 00:53:23;;;;;;;7.13;5.00;;;9.30;1.00;;;;;;5048506;28;20235;-57
2022/05/06 00:55:52;;;;;;;6.90;5.50;;;9.30;1.00;;;;;;5046042;28;20693;-58
2022/05/06 00:58:20;;;;;;;12.50;5.67;;;9.30;1.00;;;;;;5048438;28;20219;-57
2022/05/06 01:00:47;;;;;;;7.93;5.00;;;9.30;1.00;;;;;;5045306;28;20211;-57
2022/05/06 01:03:13;;;;;;;7.93;5.13;;;9.20;1.00;;;;;;5027993;28;20219;-57
2022/05/06 01:05:41;;;;;;;5.97;5.20;;;9.10;1.00;;;;;;5025084;28;20192;-57
2022/05/06 01:08:11;;;;;;;10.37;5.43;;;9.20;1.00;;;;;;5018815;28;20541;-58
2022/05/06 01:10:41;;;;;;;8.17;5.23;;;9.20;1.00;;;;;;5009946;28;20203;-57
2022/05/06 01:13:09;;;;;;;8.70;5.87;;;9.20;1.00;;;;;;5045635;28;20290;-58
2022/05/06 01:15:39;;;;;;;6.93;5.47;;;9.30;1.00;;;;;;5018507;28;20250;-56
2022/05/06 01:18:14;;;;;;;7.93;4.83;;;9.20;1.00;;;;;;5044988;28;20261;-56
2022/05/06 01:20:52;;;;;;;5.93;4.37;;;9.30;1.00;;;;;;5019743;28;20611;-57
2022/05/06 01:23:24;;;;;;;7.90;4.50;;;9.50;1.00;;;;;;5047214;28;20250;-58
2022/05/06 01:25:51;;;;;;;9.63;5.57;;;9.80;1.00;;;;;;5003162;28;20277;-56
2022/05/06 01:28:22;;;;;;;11.50;7.83;;;9.50;1.00;;;;;;5047665;28;20199;-56
2022/05/06 01:30:52;;;;;;;6.73;4.97;;;9.00;1.00;;;;;;5028811;28;20254;-56
2022/05/06 01:33:22;;;;;;;8.70;6.33;;;8.60;1.00;;;;;;5022272;28;20199;-56
2022/05/06 01:35:53;;;;;;;7.37;5.90;;;8.40;1.00;;;;;;5029401;28;20312;-55
2022/05/06 01:38:30;;;;;;;8.80;6.63;;;8.60;1.00;;;;;;5029088;28;21332;-56
2022/05/06 01:41:01;;;;;;;7.43;5.33;;;8.80;1.00;;;;;;5021566;28;20301;-55
2022/05/06 01:43:49;;;;;;;8.67;5.50;;;8.90;1.00;;;;;;5028883;28;20391;-55
2022/05/06 01:46:18;;;;;;;7.10;5.80;;;8.80;1.00;;;;;;5043328;28;20196;-57
2022/05/06 01:48:52;;;;;;;7.73;5.40;;;8.70;1.00;;;;;;5042345;28;20204;-56
2022/05/06 01:51:20;;;;;;;15.77;13.00;;;8.40;1.00;;;;;;5043482;28;20195;-57
2022/05/06 01:53:48;;;;;;;10.43;7.60;;;8.40;37.00;;;;;;5028422;28;20251;-56
2022/05/06 01:56:19;;;;;;;6.47;5.30;;;8.80;49.80;;;;;;5027010;28;20643;-57
2022/05/06 01:58:48;;;;;;;6.93;5.47;;;8.90;1.00;;;;;;5044213;28;20219;-56
2022/05/06 02:01:18;;;;;;;5.97;4.90;;;8.90;1.00;;;;;;5025043;28;20180;-57
2022/05/06 02:06:34;;;;;;;7.27;5.43;;;8.70;1.00;;;;;;5041052;28;20800;-56
2022/05/06 02:09:08;;;;;;;6.80;5.57;;;8.70;1.00;;;;;;5028107;28;20200;-56
2022/05/06 02:11:46;;;;;;;7.13;5.20;;;8.70;1.00;;;;;;5033879;28;20203;-59
2022/05/06 02:14:15;;;;;;;6.73;5.60;;;8.60;1.00;;;;;;5045134;28;20210;-57
2022/05/06 02:17:01;;;;;;;7.70;6.20;;;8.60;1.00;;;;;;5042775;28;20210;-57
2022/05/06 02:19:42;;;;;;;9.47;5.80;;;8.40;1.00;;;;;;5028639;28;20199;-57
2022/05/06 02:22:29;;;;;;;8.83;6.30;;;8.30;1.00;;;;;;5012858;28;20211;-58
2022/05/06 02:25:14;;;;;;;9.50;6.37;;;8.20;1.00;;;;;;5032033;28;20210;-57
2022/05/06 02:27:52;;;;;;;9.93;7.03;;;8.10;1.00;;;;;;5029920;28;20196;-57
2022/05/06 02:33:13;;;;;;;8.13;6.47;;;7.80;53.00;;;;;;5044400;28;20203;-57
2022/05/06 02:35:47;;;;;;;11.33;6.57;;;7.90;99.90;;;;;;5028199;28;20191;-58
2022/05/06 02:38:23;;;;;;;6.63;5.90;;;7.90;28.40;;;;;;5024847;28;20281;-58
2022/05/06 02:40:51;;;;;;;9.30;6.97;;;8.00;1.00;;;;;;5026311;28;20196;-56
2022/05/06 02:43:19;;;;;;;9.13;6.60;;;7.70;68.60;;;;;;5044756;28;20294;-56
2022/05/06 02:45:50;;;;;;;10.03;6.73;;;7.50;99.90;;;;;;5027580;28;20280;-57
2022/05/06 02:48:18;;;;;;;8.80;6.60;;;7.30;99.90;;;;;;5043050;28;20783;-58
2022/05/06 02:50:49;;;;;;;10.43;6.57;;;7.20;99.90;;;;;;5027616;28;20206;-57
2022/05/06 02:53:23;;;;;;;8.07;6.70;;;7.30;99.90;;;;;;5009993;28;20235;-57
2022/05/06 02:55:50;;;;;;;7.77;6.67;;;7.40;99.90;;;;;;5024673;28;20580;-56
2022/05/06 02:58:17;;;;;;;8.83;6.47;;;7.60;99.90;;;;;;5029117;28;20715;-56
2022/05/06 03:00:47;;;;;;;9.53;6.70;;;7.60;99.90;;;;;;5029005;28;20199;-57
2022/05/06 03:03:15;;;;;;;8.07;6.47;;;7.50;99.90;;;;;;5028423;28;20275;-56
2022/05/06 03:05:45;;;;;;;8.87;7.33;;;7.60;99.90;;;;;;5017613;28;20196;-57
2022/05/06 03:08:16;;;;;;;11.97;6.97;;;7.70;99.90;;;;;;5042506;28;20697;-56
2022/05/06 03:10:44;;;;;;;7.37;6.57;;;7.80;99.90;;;;;;5025922;28;20200;-56
2022/05/06 03:13:15;;;;;;;8.47;6.20;;;7.70;91.10;;;;;;5023159;28;20202;-57
2022/05/06 03:15:45;;;;;;;10.23;6.97;;;7.70;76.70;;;;;;5026678;28;20203;-58
2022/05/06 03:18:15;;;;;;;8.70;6.97;;;7.50;99.90;;;;;;5024536;28;20199;-55
2022/05/06 03:20:44;;;;;;;9.50;6.33;;;7.40;99.90;;;;;;5031020;28;20195;-56
2022/05/06 03:23:14;;;;;;;10.57;7.33;;;7.40;99.90;;;;;;5019657;28;20361;-55
2022/05/06 03:25:41;;;;;;;8.67;6.83;;;7.30;99.90;;;;;;5046153;28;20184;-56
2022/05/06 03:28:08;;;;;;;8.23;6.40;;;7.40;99.90;;;;;;5044463;28;20200;-55
2022/05/06 03:30:45;;;;;;;11.47;7.17;;;7.50;99.90;;;;;;5046088;28;20187;-56
2022/05/06 03:33:31;;;;;;;10.53;7.70;;;7.30;99.90;;;;;;5028019;28;20211;-55
2022/05/06 03:36:04;;;;;;;9.03;7.37;;;7.20;99.90;;;;;;5027188;28;20207;-56
2022/05/06 03:38:37;;;;;;;12.90;7.17;;;7.30;99.90;;;;;;5047331;28;20242;-56
2022/05/06 03:41:05;;;;;;;8.93;6.87;;;7.30;99.90;;;;;;5038840;28;20226;-56
2022/05/06 03:43:32;;;;;;;11.13;6.70;;;7.30;99.90;;;;;;5029933;28;20195;-56
2022/05/06 03:46:09;;;;;;;16.13;7.13;;;7.30;99.90;;;;;;5041818;28;20263;-57
2022/05/06 03:48:36;;;;;;;9.87;6.73;;;7.20;99.90;;;;;;5031579;28;20199;-55
2022/05/06 03:51:22;;;;;;;13.93;7.93;;;7.20;99.90;;;;;;5030506;28;20257;-56
2022/05/06 03:54:02;;;;;;;10.63;7.73;;;6.90;99.90;;;;;;5016341;28;20244;-55
2022/05/06 03:56:31;;;;;;;9.80;7.57;;;6.80;99.90;;;;;;5032591;28;20731;-56
2022/05/06 03:59:03;;;;;;;11.90;7.73;;;7.00;99.90;;;;;;5031989;28;20213;-57
2022/05/06 04:01:31;;;;;;;12.70;7.80;;;7.10;99.90;;;;;;5023415;28;20531;-58
2022/05/06 04:04:00;;;;;;;9.77;7.17;;;7.10;99.90;;;;;;5025289;28;20265;-57
2022/05/06 04:06:31;;;;;;;9.70;7.30;;;7.20;99.90;;;;;;5035911;28;20299;-57
2022/05/06 04:08:59;;;;;;;11.87;7.60;;;7.20;99.90;;;;;;5048345;28;20248;-56
2022/05/06 04:11:32;;;;;;;8.67;7.47;;;7.40;99.90;;;;;;5021763;28;20213;-56
2022/05/06 04:14:03;;;;;;;18.43;8.40;;;7.40;99.90;;;;;;5043206;28;20203;-56
2022/05/06 04:16:34;;;;;;;12.43;9.13;;;7.20;99.90;;;;;;5032442;28;20207;-56
2022/05/06 04:19:03;;;;;;;10.57;7.67;;;7.00;99.90;;;;;;5020332;28;20219;-56
2022/05/06 04:24:18;;;;;;;9.13;7.67;;;7.10;99.90;;;;;;5024073;28;20215;-57
2022/05/06 04:26:45;;;;;;;10.60;8.10;;;7.30;99.90;;;;;;5029636;28;20200;-57
2022/05/06 04:29:13;;;;;;;10.37;7.23;;;7.90;99.90;;;;;;5025669;28;20233;-56
2022/05/06 04:31:48;;;;;;;11.47;6.30;;;8.80;48.40;;;;;;5027794;28;20707;-56
2022/05/06 04:34:17;;;;;;;7.43;6.60;;;9.50;1.00;;;;;;5027256;28;20214;-56
2022/05/06 04:36:44;;;;;;;8.37;5.63;;;10.20;1.00;;;;;;5023131;28;20271;-56
2022/05/06 04:39:12;;;;;;;10.20;5.83;;;10.90;1.00;;;;;;5023683;28;20208;-57
2022/05/06 04:41:48;;;;;;;8.13;6.07;;;11.40;1.00;;;;;;5047050;28;20247;-56
2022/05/06 04:44:27;;;;;;;7.93;6.03;;;11.90;1.00;;;;;;5045155;28;20234;-56
2022/05/06 04:46:56;;;;;;;7.50;6.23;;;12.30;1.00;;;;;;5045106;28;20193;-56
2022/05/06 04:49:23;;;;;;;8.67;5.50;;;12.70;1.00;;;;;;5027728;28;20235;-55
2022/05/06 04:51:51;;;;;;;5.97;4.87;;;13.30;1.00;;;;;;5029402;28;20196;-56
2022/05/06 04:54:18;;;;;;;9.53;5.17;;;14.00;1.00;;;;;;5049771;28;20698;-56
2022/05/06 04:56:46;;;;;;;9.00;5.07;;;14.70;99.90;;;;;;5045713;28;20200;-56
2022/05/06 04:59:23;;;;;;;8.07;5.20;;;15.10;99.90;;;;;;5014076;28;20283;-56
2022/05/06 05:01:52;;;;;;;6.77;5.00;;;15.50;99.90;;;;;;5022523;28;20348;-56
2022/05/06 05:04:20;;;;;;;7.33;5.17;;;15.80;99.90;;;;;;5023432;28;20208;-56
2022/05/06 05:06:48;;;;;;;6.53;5.23;;;15.80;99.90;;;;;;5042533;28;20196;-56
2022/05/06 05:09:17;;;;;;;8.43;5.37;;;16.00;99.90;;;;;;5030567;28;20199;-55
2022/05/06 05:11:47;;;;;;;8.43;5.47;;;16.20;99.90;;;;;;5030889;28;20203;-56
2022/05/06 05:14:24;;;;;;;10.43;5.57;;;14.30;99.90;;;;;;5026936;28;20257;-56
2022/05/06 05:16:51;;;;;;;6.80;5.87;;;13.70;99.90;;;;;;5047760;28;20203;-56
2022/05/06 05:19:20;;;;;;;8.00;6.07;;;13.20;99.90;;;;;;5005748;28;20224;-56
2022/05/06 05:21:53;;;;;;;11.10;7.23;;;13.10;99.90;;;;;;5047802;28;20195;-57
2022/05/06 05:24:21;;;;;;;8.47;5.87;;;13.60;99.90;;;;;;5022320;28;20225;-56
2022/05/06 05:26:48;;;;;;;9.20;6.70;;;13.60;99.90;;;;;;5046777;28;20191;-57
2022/05/06 05:29:19;;;;;;;7.50;5.83;;;13.50;99.90;;;;;;5037585;28;20196;-57
2022/05/06 05:31:47;;;;;;;10.10;6.00;;;13.70;99.90;;;;;;5023794;28;20311;-56
2022/05/06 05:34:16;;;;;;;8.63;6.47;;;14.10;99.90;;;;;;5047388;28;20538;-56
2022/05/06 05:36:46;;;;;;;7.57;5.77;;;14.30;99.90;;;;;;5034429;28;20660;-56
2022/05/06 05:39:13;;;;;;;9.23;5.63;;;14.20;99.90;;;;;;5045118;28;20219;-56
2022/05/06 05:41:40;;;;;;;10.90;6.20;;;15.50;99.90;;;;;;5024882;28;20202;-56
2022/05/06 05:49:43;;;;;;;8.80;5.78;;;17.80;99.90;;;;;;5048980;28;20737;-58
2022/05/06 05:52:11;;;;;;;9.60;6.25;;;18.10;99.90;;;;;;5049540;28;20223;-56
2022/05/06 05:54:39;;;;;;;6.50;5.90;;;17.50;99.90;;;;;;5029152;28;20228;-56
2022/05/06 05:57:06;;;;;;;7.18;5.97;;;18.10;99.90;;;;;;5011031;28;20696;-57
2022/05/06 05:59:36;;;;;;;9.15;5.70;;;19.60;99.90;;;;;;5028577;28;20303;-59
2022/05/06 06:02:03;;;;;;;7.90;5.80;;;20.60;99.90;;;;;;5011715;28;20214;-56
2022/05/06 06:04:31;;;;;;;6.10;5.05;;;20.80;99.90;;;;;;5010988;28;20873;-56
2022/05/06 06:06:59;;;;;;;8.98;5.35;;;22.80;99.90;;;;;;5011427;28;20323;-57
2022/05/06 06:09:28;;;;;;;6.90;4.95;;;23.70;99.90;;;;;;5005004;28;20573;-57
2022/05/06 06:12:01;;;;;;;8.05;5.28;;;24.90;99.90;;;;;;5005961;28;20206;-57
2022/05/06 06:14:28;;;;;;;6.57;5.20;;;22.40;99.90;;;;;;5012042;28;20244;-56
2022/05/06 06:16:56;;;;;;;8.27;4.90;;;23.10;99.90;;;;;;5026575;28;20192;-57
2022/05/06 06:19:25;;;;;;;8.73;5.47;;;24.20;99.90;;;;;;5026943;28;20679;-56
2022/05/06 06:21:53;;;;;;;9.23;5.63;;;25.70;99.90;;;;;;5009180;28;20200;-57
2022/05/06 06:24:26;;;;;;;7.53;5.32;;;22.80;99.90;;;;;;5009877;28;20299;-57
2022/05/06 06:26:55;;;;;;;11.15;5.20;;;25.10;99.90;;;;;;5008790;28;20238;-56
2022/05/06 06:29:29;;;;;;;7.07;5.13;;;24.70;99.90;;;;;;5023729;28;20207;-56
2022/05/06 06:31:57;;;;;;;12.60;5.03;;;25.80;99.90;;;;;;5024427;28;20941;-57
2022/05/06 06:34:24;;;;;;;8.23;4.60;;;26.60;99.90;;;;;;5007968;28;20200;-56
2022/05/06 06:36:51;;;;;;;9.73;5.65;;;25.70;99.90;;;;;;5007938;28;20208;-58
2022/05/06 06:39:18;;;;;;;5.45;4.65;;;25.50;99.90;;;;;;5005925;28;20703;-58
2022/05/06 06:41:49;;;;;;;17.52;5.60;;;27.60;99.90;;;;;;5007529;28;20244;-57
2022/05/06 06:44:20;;;;;;;10.57;5.07;;;26.20;99.90;;;;;;5000213;28;20192;-57
2022/05/06 06:47:09;;;;;;;9.88;5.28;;;21.70;99.90;;;;;;5014542;28;20203;-57
2022/05/06 06:49:53;;;;;;;11.77;5.47;;;23.40;99.90;;;;;;4998896;28;20224;-57
2022/05/06 06:52:46;;;;;;;7.68;4.85;;;25.60;99.90;;;;;;5022219;28;20216;-56
2022/05/06 06:55:13;;;;;;;9.73;5.75;;;28.90;99.90;;;;;;5039962;28;20199;-56
2022/05/06 06:57:40;;;;;;;7.07;5.20;;;25.00;99.90;;;;;;5044254;28;20199;-57
2022/05/06 07:00:08;;;;;;;5.88;5.15;;;26.40;99.90;;;;;;5041362;28;20266;-57
2022/05/06 07:02:37;;;;;;;8.82;5.40;;;29.00;99.90;;;;;;5043316;28;20654;-57
2022/05/06 07:05:05;;;;;;;6.82;5.38;;;26.90;99.90;;;;;;5040521;28;20196;-55
2022/05/06 07:13:30;;;;;;;14.73;11.18;;;26.90;99.90;;;;;;5043845;28;20191;-57
2022/05/06 07:15:57;;;;;;;9.30;5.75;;;26.90;99.90;;;;;;5051387;28;20204;-57
2022/05/06 07:18:25;;;;;;;7.72;5.63;;;27.90;99.90;;;;;;5049751;28;20681;-56
2022/05/06 07:20:54;;;;;;;8.32;5.82;;;27.40;99.90;;;;;;5047063;28;20242;-56
2022/05/06 07:23:23;;;;;;;9.93;5.80;;;27.30;99.90;;;;;;5051343;28;20195;-56
2022/05/06 07:25:50;;;;;;;10.07;6.43;;;28.80;99.90;;;;;;5051156;28;20260;-57
2022/05/06 07:28:19;;;;;;;9.70;6.03;;;25.90;99.90;;;;;;5046765;28;20234;-56
2022/05/06 07:30:46;;;;;;;6.50;5.45;;;27.00;99.90;;;;;;5047862;28;20570;-55
2022/05/06 07:33:13;;;;;;;9.68;5.95;;;28.60;99.90;;;;;;5047242;28;20214;-55
2022/05/06 07:35:40;;;;;;;7.63;5.40;;;26.70;99.90;;;;;;5044776;28;20230;-56
2022/05/06 07:38:07;;;;;;;9.65;6.03;;;27.90;99.90;;;;;;5050959;28;20191;-57
2022/05/06 07:40:34;;;;;;;13.45;6.45;;;31.90;99.90;;;;;;5047210;28;20303;-56
2022/05/06 07:43:01;;;;;;;10.43;6.20;;;30.60;99.90;;;;;;5051919;28;20661;-57
2022/05/06 07:45:28;;;;;;;9.48;5.78;;;31.00;99.90;;;;;;5052576;28;20589;-57
2022/05/06 07:47:55;;;;;;;9.68;5.63;;;29.70;99.90;;;;;;5049213;28;20336;-57
2022/05/06 07:50:30;;;;;;;7.20;5.38;;;30.10;99.90;;;;;;5049984;28;20192;-57
2022/05/06 07:52:58;;;;;;;6.82;5.32;;;27.70;99.90;;;;;;5049762;28;20263;-57
2022/05/06 07:55:25;;;;;;;7.25;5.70;;;32.30;99.90;;;;;;5033087;28;20279;-57
2022/05/06 07:57:53;;;;;;;8.15;5.70;;;32.70;99.90;;;;;;5028609;28;20288;-57
2022/05/06 08:00:24;;;;;;;9.10;5.60;;;32.00;99.90;;;;;;5008788;28;20212;-58
2022/05/06 08:05:40;;;;;;;5.95;5.25;;;33.20;99.90;;;;;;5032371;28;20203;-56
2022/05/06 08:08:07;;;;;;;11.15;5.95;;;34.90;99.90;;;;;;5030146;28;20204;-58
2022/05/06 08:10:35;;;;;;;7.03;5.47;;;35.10;99.90;;;;;;5026443;28;20223;-58
2022/05/06 08:13:07;;;;;;;7.07;5.43;;;37.40;99.90;;;;;;5003274;28;20208;-57
2022/05/06 08:15:34;;;;;;;6.43;4.88;;;37.70;99.90;;;;;;5030032;28;20223;-57
2022/05/06 08:18:02;;;;;;;6.90;4.75;;;34.10;99.90;;;;;;5028603;28;20204;-57
2022/05/06 08:20:32;;;;;;;9.57;5.53;;;36.10;99.90;;;;;;5022713;28;20214;-57
2022/05/06 08:23:00;;;;;;;11.73;6.03;;;38.50;99.90;;;;;;5023790;28;20233;-57
2022/05/06 08:25:27;;;;;;;7.75;6.15;;;31.30;99.90;;;;;;5020474;28;20287;-57
2022/05/06 08:28:04;;;;;;;9.63;5.60;;;32.50;99.90;;;;;;5025565;28;20314;-57
2022/05/06 08:30:32;;;;;;;7.20;5.00;;;35.20;99.90;;;;;;5022710;28;20204;-57
2022/05/06 08:32:59;;;;;;;10.23;5.95;;;36.70;99.90;;;;;;5029453;28;20625;-57
2022/05/06 08:35:26;;;;;;;8.20;5.72;;;38.00;99.90;;;;;;5009261;28;20684;-58
2022/05/06 08:37:53;;;;;;;8.73;5.25;;;36.70;99.90;;;;;;5026508;28;20220;-56
2022/05/06 08:40:29;;;;;;;7.53;5.90;;;35.10;99.90;;;;;;5022826;28;20217;-57
2022/05/06 08:42:56;;;;;;;10.98;5.85;;;32.90;99.90;;;;;;5021903;28;20196;-56
2022/05/06 08:51:04;;;;;;;6.45;4.72;;;38.70;99.90;;;;;;5018875;28;20200;-58
2022/05/06 08:53:37;;;;;;;8.10;4.53;;;40.00;99.90;;;;;;5006583;28;20369;-58
2022/05/06 08:56:04;;;;;;;7.68;4.57;;;38.00;99.90;;;;;;5028052;28;20222;-57
2022/05/06 08:58:37;;;;;;;7.35;5.05;;;38.70;99.90;;;;;;5043125;28;20587;-57
2022/05/06 09:01:06;;;;;;;8.68;5.00;;;37.00;99.90;;;;;;5041303;28;20746;-58
2022/05/06 09:03:46;;;;;;;8.05;5.55;;;38.60;99.90;;;;;;5025556;28;20219;-56
2022/05/06 09:06:23;;;;;;;8.20;5.13;;;37.30;99.90;;;;;;5040805;28;20196;-58
2022/05/06 09:08:52;;;;;;;14.02;5.82;;;37.40;99.90;;;;;;5048828;28;21408;-58
2022/05/06 09:14:12;;;;;;;11.80;6.30;;;37.90;99.90;;;;;;5024653;28;20692;-58
2022/05/06 09:16:46;;;;;;;8.55;5.45;;;35.50;99.90;;;;;;5039483;28;21265;-57
2022/05/06 09:19:25;;;;;;;8.55;6.30;;;37.30;99.90;;;;;;5013758;28;20600;-57
2022/05/06 09:22:01;;;;;;;8.30;6.38;;;38.00;99.90;;;;;;5044857;28;20535;-57
2022/05/06 09:24:30;;;;;;;10.07;6.10;;;37.10;99.90;;;;;;5046205;28;20753;-57
2022/05/06 09:27:08;;;;;;;8.32;6.38;;;35.80;99.90;;;;;;5043317;28;20183;-57
2022/05/06 09:29:39;;;;;;;10.90;6.50;;;34.50;99.90;;;;;;5044219;28;20227;-57
2022/05/06 09:32:22;;;;;;;12.30;6.97;;;34.20;99.90;;;;;;5022909;28;20341;-56
2022/05/06 09:35:19;;;;;;;7.00;5.50;;;35.50;99.90;;;;;;5046880;28;20204;-58
2022/05/06 09:37:48;;;;;;;8.93;5.53;;;37.60;99.90;;;;;;5027827;28;20219;-57
2022/05/06 09:40:35;;;;;;;7.85;6.38;;;38.60;99.90;;;;;;5043006;28;20253;-56
2022/05/06 09:43:02;;;;;;;7.75;6.75;;;36.80;99.90;;;;;;5042421;28;20226;-59
2022/05/06 09:45:33;;;;;;;9.57;6.95;;;35.50;99.90;;;;;;5044506;28;20195;-58
2022/05/06 09:48:11;;;;;;;8.50;6.78;;;30.00;99.90;;;;;;5022850;28;20210;-58
2022/05/06 09:50:38;;;;;;;7.68;6.68;;;33.10;99.90;;;;;;5045368;28;20205;-58
2022/05/06 09:53:08;;;;;;;13.20;6.80;;;33.40;99.90;;;;;;5044285;28;20246;-57
2022/05/06 09:55:36;;;;;;;9.43;6.03;;;33.40;99.90;;;;;;5036324;28;20203;-57
2022/05/06 09:58:04;;;;;;;10.85;7.00;;;35.10;99.90;;;;;;5021590;28;20211;-62
2022/05/06 10:00:32;;;;;;;8.73;7.05;;;36.70;99.90;;;;;;5017565;28;20220;-58
2022/05/06 10:03:03;;;;;;;7.85;6.43;;;35.60;99.90;;;;;;5047023;28;20941;-58
2022/05/06 10:05:33;;;;;;;8.10;6.53;;;36.70;99.90;;;;;;5046152;28;20249;-57
2022/05/06 10:08:13;;;;;;;10.20;6.45;;;37.60;99.90;;;;;;5047120;28;20204;-57
2022/05/06 10:10:45;;;;;;;9.13;5.78;;;37.30;99.90;;;;;;5021289;28;20198;-57
2022/05/06 10:13:23;;;;;;;10.23;6.68;;;38.00;99.90;;;;;;5038264;28;20187;-57
2022/05/06 10:15:52;;;;;;;9.13;6.35;;;38.30;99.90;;;;;;5030721;28;20244;-56
2022/05/06 10:18:33;;;;;;;8.15;6.18;;;37.30;99.90;;;;;;5045026;28;20196;-57
2022/05/06 10:21:01;;;;;;;7.60;6.20;;;36.50;99.90;;;;;;5043809;28;20577;-57
2022/05/06 10:23:52;;;;;;;8.63;5.82;;;35.30;99.90;;;;;;5028572;28;20987;-56
2022/05/06 10:26:45;;;;;;;7.65;5.72;;;35.50;99.90;;;;;;5026360;28;20654;-57
2022/05/06 10:34:57;;;;;;;9.63;7.00;;;33.10;99.90;;;;;;5044532;28;20195;-58
2022/05/06 10:37:35;;;;;;;8.90;6.28;;;30.30;99.90;;;;;;5038217;28;20227;-57
2022/05/06 10:40:24;;;;;;;10.02;6.30;;;28.40;99.90;;;;;;5043648;28;20226;-57
2022/05/06 10:42:52;;;;;;;9.65;5.80;;;29.80;99.90;;;;;;5025337;28;20260;-58
2022/05/06 10:45:35;;;;;;;10.32;7.10;;;33.10;99.90;;;;;;5040853;28;20227;-58
2022/05/06 10:48:18;;;;;;;9.05;7.03;;;33.20;99.90;;;;;;5042022;28;20870;-57
2022/05/06 10:50:45;;;;;;;7.75;6.28;;;31.40;99.90;;;;;;5043140;28;20744;-57
2022/05/06 10:53:32;;;;;;;7.05;6.00;;;29.00;99.90;;;;;;5036645;28;20231;-57
2022/05/06 10:55:58;;;;;;;7.13;6.13;;;30.10;99.90;;;;;;5033520;28;20196;-58
2022/05/06 10:58:25;;;;;;;8.05;6.35;;;30.30;99.90;;;;;;5033563;28;20206;-59
2022/05/06 11:00:59;;;;;;;10.05;7.60;;;29.40;99.90;;;;;;5031059;28;20222;-58
2022/05/06 11:03:26;;;;;;;9.60;7.28;;;27.90;99.90;;;;;;5040414;28;20631;-55
2022/05/06 11:05:53;;;;;;;16.75;6.93;;;30.40;99.90;;;;;;5046047;28;20249;-56
2022/05/06 11:08:32;;;;;;;9.82;6.80;;;30.80;99.90;;;;;;5018663;28;20226;-57
2022/05/06 11:10:59;;;;;;;13.80;7.75;;;30.50;99.90;;;;;;5046552;28;20207;-55
2022/05/06 11:13:33;;;;;;;13.27;6.30;;;30.10;99.90;;;;;;5041614;28;20195;-57
2022/05/06 11:16:09;;;;;;;13.23;7.65;;;30.10;99.90;;;;;;5036287;28;20236;-58
2022/05/06 11:18:47;;;;;;;7.95;6.53;;;29.70;99.90;;;;;;5043816;28;20202;-57
2022/05/06 11:21:24;;;;;;;10.00;7.25;;;29.60;99.90;;;;;;5040155;28;20326;-57
2022/05/06 11:23:51;;;;;;;11.57;7.10;;;30.90;99.90;;;;;;5043432;28;20997;-57
2022/05/06 11:26:27;;;;;;;8.65;6.95;;;32.20;99.90;;;;;;5039509;28;20242;-57
2022/05/06 11:29:05;;;;;;;7.80;6.57;;;29.60;99.90;;;;;;5045186;28;20210;-60
2022/05/06 11:31:33;;;;;;;7.57;6.75;;;27.90;99.90;;;;;;5023196;28;20222;-57
2022/05/06 11:34:05;;;;;;;7.95;6.38;;;26.50;99.90;;;;;;5044539;28;20195;-56
2022/05/06 11:36:33;;;;;;;9.18;5.97;;;29.50;99.90;;;;;;5039657;28;20716;-57
2022/05/06 11:39:10;;;;;;;9.10;5.90;;;31.80;99.90;;;;;;5036446;28;20244;-57
2022/05/06 11:41:37;;;;;;;14.13;6.63;;;32.70;99.90;;;;;;5033198;28;20248;-57
2022/05/06 11:44:05;;;;;;;10.10;6.38;;;33.60;99.90;;;;;;5018754;28;20222;-57
2022/05/06 11:49:25;;;;;;;9.27;6.55;;;32.60;99.90;;;;;;5018720;28;20193;-56
2022/05/06 11:51:55;;;;;;;12.57;6.93;;;30.90;99.90;;;;;;5041140;28;21121;-56
2022/05/06 11:54:22;;;;;;;10.05;7.07;;;30.10;99.90;;;;;;5026011;28;20762;-55
2022/05/06 11:56:50;;;;;;;11.70;6.93;;;29.30;99.90;;;;;;5009586;28;20246;-56
2022/05/06 11:59:19;;;;;;;6.97;5.82;;;28.60;99.90;;;;;;5006829;28;20207;-57
2022/05/06 12:01:46;;;;;;;10.35;7.00;;;28.40;99.90;;;;;;5020929;28;20752;-58
2022/05/06 12:04:13;;;;;;;9.13;5.88;;;28.00;99.90;;;;;;5019088;28;20291;-56
2022/05/06 12:06:48;;;;;;;8.30;5.72;;;27.30;99.90;;;;;;5016852;28;20646;-63
2022/05/06 12:09:24;;;;;;;6.85;5.40;;;26.80;99.90;;;;;;5001992;28;20208;-57
2022/05/06 12:12:04;;;;;;;6.75;5.47;;;26.50;99.90;;;;;;5019182;28;20228;-56
2022/05/06 12:14:31;;;;;;;10.35;5.90;;;27.50;99.90;;;;;;5010049;28;20291;-59
2022/05/06 12:17:12;;;;;;;15.57;6.68;;;27.50;99.90;;;;;;5015216;28;20200;-57
2022/05/06 12:19:46;;;;;;;13.30;6.97;;;28.20;99.90;;;;;;5029935;28;20316;-57
2022/05/06 12:22:14;;;;;;;9.25;7.05;;;28.60;99.90;;;;;;5021567;28;20305;-57
2022/05/06 12:24:43;;;;;;;10.75;7.05;;;28.30;99.90;;;;;;5012710;28;20189;-57
2022/05/06 12:27:10;;;;;;;9.68;6.93;;;28.20;99.90;;;;;;5025461;28;20566;-58
2022/05/06 12:29:41;;;;;;;9.00;6.55;;;27.90;99.90;;;;;;5023090;28;20192;-57
2022/05/06 12:32:08;;;;;;;10.57;6.50;;;28.10;99.90;;;;;;5024960;28;20208;-58
2022/05/06 12:34:35;;;;;;;18.33;7.10;;;27.90;99.90;;;;;;5026258;28;20184;-57
2022/05/06 12:37:18;;;;;;;11.32;6.47;;;27.90;99.90;;;;;;5009035;28;20200;-59
2022/05/06 12:39:48;;;;;;;7.95;6.95;;;27.80;99.90;;;;;;5024751;28;20757;-58
2022/05/06 12:42:17;;;;;;;13.32;6.50;;;27.60;99.90;;;;;;5005492;28;20296;-58
2022/05/06 12:44:45;;;;;;;11.60;6.68;;;27.50;99.90;;;;;;5023837;28;20792;-58
2022/05/06 12:50:11;;;;;;;8.65;6.60;;;27.40;99.90;;;;;;5017119;28;20192;-58
2022/05/06 12:52:40;;;;;;;10.48;7.30;;;27.20;99.90;;;;;;5021103;28;20752;-58
2022/05/06 12:55:13;;;;;;;10.18;7.65;;;26.90;99.90;;;;;;5044520;28;20219;-58
2022/05/06 12:57:40;;;;;;;8.68;7.28;;;26.50;99.90;;;;;;5042896;28;20192;-57
2022/05/06 13:00:08;;;;;;;10.20;7.97;;;26.70;99.90;;;;;;5040144;28;20250;-57
2022/05/06 13:02:35;;;;;;;10.73;8.13;;;26.60;99.90;;;;;;5040438;28;20188;-58
2022/05/06 13:05:02;;;;;;;7.88;6.93;;;26.80;99.90;;;;;;5021195;28;20203;-58
2022/05/06 13:07:29;;;;;;;12.65;8.27;;;26.70;99.90;;;;;;5024424;28;20199;-57
2022/05/06 13:09:56;;;;;;;9.23;7.85;;;26.50;99.90;;;;;;5046179;28;20293;-58
2022/05/06 13:12:24;;;;;;;12.23;7.63;;;26.30;99.90;;;;;;5018173;28;20227;-57
2022/05/06 13:14:51;;;;;;;9.38;7.72;;;26.50;99.90;;;;;;5017628;28;20262;-57
2022/05/06 13:17:18;;;;;;;12.20;8.25;;;26.30;99.90;;;;;;5040444;28;20191;-58
2022/05/06 13:19:46;;;;;;;18.90;10.95;;;26.50;99.90;;;;;;5041497;28;20291;-58
2022/05/06 13:22:14;;;;;;;21.05;13.40;;;26.40;99.90;;;;;;5044812;28;20287;-58
2022/05/06 13:24:41;;;;;;;21.33;11.00;;;26.20;99.90;;;;;;5043145;28;20191;-58
2022/05/06 13:27:08;;;;;;;17.17;9.75;;;26.50;99.90;;;;;;5020640;28;20286;-58
2022/05/06 13:29:34;;;;;;;11.43;9.02;;;26.60;99.90;;;;;;5033967;28;20246;-59
2022/05/06 13:32:01;;;;;;;13.35;11.38;;;26.50;99.90;;;;;;5041434;28;20200;-58
2022/05/06 13:34:28;;;;;;;14.05;10.95;;;26.40;99.90;;;;;;5044608;28;20199;-58
2022/05/06 13:36:56;;;;;;;10.32;8.23;;;26.00;99.90;;;;;;5044971;28;20264;-57
2022/05/06 13:39:23;;;;;;;12.20;7.47;;;25.30;99.90;;;;;;5041186;28;20242;-58
2022/05/06 13:41:50;;;;;;;12.40;7.57;;;24.40;99.90;;;;;;5042323;28;20215;-58
2022/05/06 13:44:17;;;;;;;12.88;7.85;;;24.40;99.90;;;;;;5029322;28;20183;-58
2022/05/06 13:46:45;;;;;;;12.73;8.48;;;24.70;99.90;;;;;;5044188;28;20723;-58
2022/05/06 13:49:12;;;;;;;17.45;8.73;;;24.80;99.90;;;;;;5047786;28;20222;-58